sensor_id;sensor_type;location;lat;lon;timestamp;P1;durP1;ratioP1;P2;durP2;ratioP2
24681;SDS011;12802;53.390;-2.328;2023-12-28T00:00:38;36.78;;;5.80;;
24681;SDS011;12802;53.390;-2.328;2023-12-28T00:03:04;41.78;;;5.75;;
24681;SDS011;12802;53.390;-2.328;2023-12-28T00:05:30;32.95;;;5.43;;
24681;SDS011;12802;53.390;-2.328;2023-12-28T00:07:56;28.90;;;6.05;;
24681;SDS011;12802;53.390;-2.328;2023-12-28T00:10:26;32.75;;;5.05;;
24681;SDS011;12802;53.390;-2.328;2023-12-28T00:12:53;41.30;;;6.95;;
24681;SDS011;12802;53.390;-2.328;2023-12-28T00:15:19;28.55;;;5.20;;
24681;SDS011;12802;53.390;-2.328;2023-12-28T00:17:46;32.30;;;5.28;;
24681;SDS011;12802;53.390;-2.328;2023-12-28T00:20:12;27.25;;;4.60;;
24681;SDS011;12802;53.390;-2.328;2023-12-28T00:22:38;28.70;;;4.82;;
24681;SDS011;12802;53.390;-2.328;2023-12-28T00:25:04;32.25;;;5.63;;
24681;SDS011;12802;53.390;-2.328;2023-12-28T00:27:30;38.45;;;5.03;;
24681;SDS011;12802;53.390;-2.328;2023-12-28T00:29:59;32.22;;;5.60;;
24681;SDS011;12802;53.390;-2.328;2023-12-28T00:32:25;32.22;;;5.22;;
24681;SDS011;12802;53.390;-2.328;2023-12-28T00:34:51;36.50;;;5.43;;
24681;SDS011;12802;53.390;-2.328;2023-12-28T00:37:17;34.35;;;6.07;;
24681;SDS011;12802;53.390;-2.328;2023-12-28T00:39:44;34.17;;;5.68;;
24681;SDS011;12802;53.390;-2.328;2023-12-28T00:42:13;38.55;;;5.47;;
24681;SDS011;12802;53.390;-2.328;2023-12-28T00:44:39;32.53;;;5.05;;
24681;SDS011;12802;53.390;-2.328;2023-12-28T00:47:06;30.58;;;6.32;;
24681;SDS011;12802;53.390;-2.328;2023-12-28T00:49:32;30.25;;;5.40;;
24681;SDS011;12802;53.390;-2.328;2023-12-28T00:51:59;34.08;;;5.32;;
24681;SDS011;12802;53.390;-2.328;2023-12-28T00:54:25;35.25;;;5.28;;
24681;SDS011;12802;53.390;-2.328;2023-12-28T00:56:51;28.02;;;4.43;;
24681;SDS011;12802;53.390;-2.328;2023-12-28T00:59:17;29.55;;;4.57;;
24681;SDS011;12802;53.390;-2.328;2023-12-28T01:01:44;32.45;;;5.25;;
24681;SDS011;12802;53.390;-2.328;2023-12-28T01:04:10;38.53;;;5.30;;
24681;SDS011;12802;53.390;-2.328;2023-12-28T01:06:36;36.03;;;5.45;;
24681;SDS011;12802;53.390;-2.328;2023-12-28T01:09:02;29.20;;;5.78;;
24681;SDS011;12802;53.390;-2.328;2023-12-28T01:11:28;30.92;;;5.18;;
24681;SDS011;12802;53.390;-2.328;2023-12-28T01:13:55;36.03;;;5.97;;
24681;SDS011;12802;53.390;-2.328;2023-12-28T01:16:22;39.75;;;5.68;;
24681;SDS011;12802;53.390;-2.328;2023-12-28T01:18:49;36.83;;;5.10;;
24681;SDS011;12802;53.390;-2.328;2023-12-28T01:21:15;32.53;;;5.65;;
24681;SDS011;12802;53.390;-2.328;2023-12-28T01:23:41;39.70;;;7.55;;
24681;SDS011;12802;53.390;-2.328;2023-12-28T01:26:12;41.53;;;6.13;;
24681;SDS011;12802;53.390;-2.328;2023-12-28T01:28:38;31.95;;;5.22;;
24681;SDS011;12802;53.390;-2.328;2023-12-28T01:31:05;46.45;;;6.60;;
24681;SDS011;12802;53.390;-2.328;2023-12-28T01:33:31;33.40;;;5.53;;
24681;SDS011;12802;53.390;-2.328;2023-12-28T01:35:57;37.60;;;6.03;;
24681;SDS011;12802;53.390;-2.328;2023-12-28T01:38:23;37.13;;;5.72;;
24681;SDS011;12802;53.390;-2.328;2023-12-28T01:40:49;38.55;;;6.00;;
24681;SDS011;12802;53.390;-2.328;2023-12-28T01:43:15;31.60;;;5.60;;
24681;SDS011;12802;53.390;-2.328;2023-12-28T01:45:41;35.95;;;6.32;;
24681;SDS011;12802;53.390;-2.328;2023-12-28T01:48:08;36.75;;;5.10;;
24681;SDS011;12802;53.390;-2.328;2023-12-28T01:50:34;35.83;;;6.05;;
24681;SDS011;12802;53.390;-2.328;2023-12-28T01:53:01;32.75;;;5.55;;
24681;SDS011;12802;53.390;-2.328;2023-12-28T01:55:27;42.60;;;6.88;;
24681;SDS011;12802;53.390;-2.328;2023-12-28T02:00:23;38.83;;;5.95;;
24681;SDS011;12802;53.390;-2.328;2023-12-28T02:02:50;28.38;;;5.07;;
24681;SDS011;12802;53.390;-2.328;2023-12-28T02:05:16;42.63;;;6.25;;
24681;SDS011;12802;53.390;-2.328;2023-12-28T02:07:43;38.85;;;6.40;;
24681;SDS011;12802;53.390;-2.328;2023-12-28T02:10:09;36.75;;;6.80;;
24681;SDS011;12802;53.390;-2.328;2023-12-28T02:12:35;30.40;;;5.75;;
24681;SDS011;12802;53.390;-2.328;2023-12-28T02:15:01;34.55;;;5.50;;
24681;SDS011;12802;53.390;-2.328;2023-12-28T02:17:28;33.58;;;5.13;;
24681;SDS011;12802;53.390;-2.328;2023-12-28T02:19:56;33.75;;;6.22;;
24681;SDS011;12802;53.390;-2.328;2023-12-28T02:22:24;33.67;;;5.47;;
24681;SDS011;12802;53.390;-2.328;2023-12-28T02:27:23;28.02;;;4.85;;
24681;SDS011;12802;53.390;-2.328;2023-12-28T02:29:49;30.17;;;4.88;;
24681;SDS011;12802;53.390;-2.328;2023-12-28T02:32:16;32.78;;;5.68;;
24681;SDS011;12802;53.390;-2.328;2023-12-28T02:34:43;22.65;;;4.60;;
24681;SDS011;12802;53.390;-2.328;2023-12-28T02:37:11;30.17;;;4.35;;
24681;SDS011;12802;53.390;-2.328;2023-12-28T02:39:38;27.65;;;5.00;;
24681;SDS011;12802;53.390;-2.328;2023-12-28T02:42:05;26.65;;;4.15;;
24681;SDS011;12802;53.390;-2.328;2023-12-28T02:44:31;21.67;;;4.07;;
24681;SDS011;12802;53.390;-2.328;2023-12-28T02:46:57;15.43;;;3.47;;
24681;SDS011;12802;53.390;-2.328;2023-12-28T02:49:23;26.58;;;3.58;;
24681;SDS011;12802;53.390;-2.328;2023-12-28T02:51:49;28.42;;;3.83;;
24681;SDS011;12802;53.390;-2.328;2023-12-28T02:54:15;22.52;;;3.65;;
24681;SDS011;12802;53.390;-2.328;2023-12-28T02:56:42;24.02;;;3.67;;
24681;SDS011;12802;53.390;-2.328;2023-12-28T02:59:09;14.00;;;2.97;;
24681;SDS011;12802;53.390;-2.328;2023-12-28T03:01:35;20.08;;;3.40;;
24681;SDS011;12802;53.390;-2.328;2023-12-28T03:04:02;21.85;;;3.72;;
24681;SDS011;12802;53.390;-2.328;2023-12-28T03:06:28;29.33;;;3.47;;
24681;SDS011;12802;53.390;-2.328;2023-12-28T03:08:54;24.40;;;3.35;;
24681;SDS011;12802;53.390;-2.328;2023-12-28T03:11:20;21.88;;;3.45;;
24681;SDS011;12802;53.390;-2.328;2023-12-28T03:13:46;16.70;;;2.80;;
24681;SDS011;12802;53.390;-2.328;2023-12-28T03:16:13;24.77;;;4.25;;
24681;SDS011;12802;53.390;-2.328;2023-12-28T03:18:39;29.85;;;4.40;;
24681;SDS011;12802;53.390;-2.328;2023-12-28T03:21:05;26.33;;;3.30;;
24681;SDS011;12802;53.390;-2.328;2023-12-28T03:23:33;33.83;;;4.45;;
24681;SDS011;12802;53.390;-2.328;2023-12-28T03:26:00;21.90;;;4.35;;
24681;SDS011;12802;53.390;-2.328;2023-12-28T03:28:26;28.02;;;4.00;;
24681;SDS011;12802;53.390;-2.328;2023-12-28T03:30:52;19.83;;;4.38;;
24681;SDS011;12802;53.390;-2.328;2023-12-28T03:33:19;22.05;;;3.08;;
24681;SDS011;12802;53.390;-2.328;2023-12-28T03:35:45;23.73;;;3.33;;
24681;SDS011;12802;53.390;-2.328;2023-12-28T03:38:12;13.75;;;2.72;;
24681;SDS011;12802;53.390;-2.328;2023-12-28T03:40:39;21.20;;;3.40;;
24681;SDS011;12802;53.390;-2.328;2023-12-28T03:43:05;17.45;;;2.72;;
24681;SDS011;12802;53.390;-2.328;2023-12-28T03:45:31;12.60;;;2.72;;
24681;SDS011;12802;53.390;-2.328;2023-12-28T03:47:57;26.90;;;3.78;;
24681;SDS011;12802;53.390;-2.328;2023-12-28T03:50:23;22.15;;;3.20;;
24681;SDS011;12802;53.390;-2.328;2023-12-28T03:52:50;25.27;;;5.00;;
24681;SDS011;12802;53.390;-2.328;2023-12-28T03:55:16;18.00;;;2.42;;
24681;SDS011;12802;53.390;-2.328;2023-12-28T03:57:42;18.20;;;2.60;;
24681;SDS011;12802;53.390;-2.328;2023-12-28T04:00:11;24.70;;;3.05;;
24681;SDS011;12802;53.390;-2.328;2023-12-28T04:02:40;23.67;;;2.85;;
24681;SDS011;12802;53.390;-2.328;2023-12-28T04:05:06;13.35;;;1.98;;
24681;SDS011;12802;53.390;-2.328;2023-12-28T04:07:33;20.27;;;3.33;;
24681;SDS011;12802;53.390;-2.328;2023-12-28T04:09:59;20.58;;;3.60;;
24681;SDS011;12802;53.390;-2.328;2023-12-28T04:12:26;20.63;;;3.15;;
24681;SDS011;12802;53.390;-2.328;2023-12-28T04:14:53;20.02;;;3.28;;
24681;SDS011;12802;53.390;-2.328;2023-12-28T04:17:19;17.20;;;2.33;;
24681;SDS011;12802;53.390;-2.328;2023-12-28T04:19:45;15.75;;;3.33;;
24681;SDS011;12802;53.390;-2.328;2023-12-28T04:22:12;14.23;;;2.30;;
24681;SDS011;12802;53.390;-2.328;2023-12-28T04:24:38;22.08;;;4.47;;
24681;SDS011;12802;53.390;-2.328;2023-12-28T04:27:04;16.40;;;2.78;;
24681;SDS011;12802;53.390;-2.328;2023-12-28T04:29:30;18.13;;;2.45;;
24681;SDS011;12802;53.390;-2.328;2023-12-28T04:31:57;20.08;;;3.25;;
24681;SDS011;12802;53.390;-2.328;2023-12-28T04:34:23;21.15;;;3.17;;
24681;SDS011;12802;53.390;-2.328;2023-12-28T04:36:49;23.08;;;2.83;;
24681;SDS011;12802;53.390;-2.328;2023-12-28T04:39:17;19.58;;;3.25;;
24681;SDS011;12802;53.390;-2.328;2023-12-28T04:41:44;15.52;;;3.00;;
24681;SDS011;12802;53.390;-2.328;2023-12-28T04:44:10;29.45;;;5.30;;
24681;SDS011;12802;53.390;-2.328;2023-12-28T04:46:37;22.55;;;3.28;;
24681;SDS011;12802;53.390;-2.328;2023-12-28T04:49:07;18.25;;;3.38;;
24681;SDS011;12802;53.390;-2.328;2023-12-28T04:51:34;17.42;;;3.00;;
24681;SDS011;12802;53.390;-2.328;2023-12-28T04:54:00;19.20;;;3.15;;
24681;SDS011;12802;53.390;-2.328;2023-12-28T04:56:26;11.40;;;2.13;;
24681;SDS011;12802;53.390;-2.328;2023-12-28T04:58:52;16.17;;;3.03;;
24681;SDS011;12802;53.390;-2.328;2023-12-28T05:01:18;13.95;;;2.15;;
24681;SDS011;12802;53.390;-2.328;2023-12-28T05:03:46;17.00;;;2.70;;
24681;SDS011;12802;53.390;-2.328;2023-12-28T05:06:12;17.08;;;2.92;;
24681;SDS011;12802;53.390;-2.328;2023-12-28T05:08:38;13.05;;;2.45;;
24681;SDS011;12802;53.390;-2.328;2023-12-28T05:11:05;16.77;;;2.83;;
24681;SDS011;12802;53.390;-2.328;2023-12-28T05:13:31;15.20;;;2.47;;
24681;SDS011;12802;53.390;-2.328;2023-12-28T05:15:59;13.10;;;2.75;;
24681;SDS011;12802;53.390;-2.328;2023-12-28T05:18:25;19.15;;;2.88;;
24681;SDS011;12802;53.390;-2.328;2023-12-28T05:20:51;15.23;;;2.53;;
24681;SDS011;12802;53.390;-2.328;2023-12-28T05:23:17;10.57;;;1.92;;
24681;SDS011;12802;53.390;-2.328;2023-12-28T05:25:43;21.27;;;2.60;;
24681;SDS011;12802;53.390;-2.328;2023-12-28T05:28:11;21.67;;;2.63;;
24681;SDS011;12802;53.390;-2.328;2023-12-28T05:30:37;18.65;;;2.78;;
24681;SDS011;12802;53.390;-2.328;2023-12-28T05:33:03;11.85;;;2.20;;
24681;SDS011;12802;53.390;-2.328;2023-12-28T05:35:29;13.05;;;2.17;;
24681;SDS011;12802;53.390;-2.328;2023-12-28T05:37:56;19.90;;;3.03;;
24681;SDS011;12802;53.390;-2.328;2023-12-28T05:40:22;17.17;;;2.88;;
24681;SDS011;12802;53.390;-2.328;2023-12-28T05:42:48;21.50;;;3.35;;
24681;SDS011;12802;53.390;-2.328;2023-12-28T05:45:14;18.45;;;2.42;;
24681;SDS011;12802;53.390;-2.328;2023-12-28T05:47:41;16.38;;;2.35;;
24681;SDS011;12802;53.390;-2.328;2023-12-28T05:50:07;13.30;;;1.58;;
24681;SDS011;12802;53.390;-2.328;2023-12-28T05:52:33;13.77;;;1.98;;
24681;SDS011;12802;53.390;-2.328;2023-12-28T05:54:59;12.68;;;2.22;;
24681;SDS011;12802;53.390;-2.328;2023-12-28T05:57:25;10.52;;;2.95;;
24681;SDS011;12802;53.390;-2.328;2023-12-28T05:59:55;14.68;;;2.25;;
24681;SDS011;12802;53.390;-2.328;2023-12-28T06:02:21;14.00;;;1.98;;
24681;SDS011;12802;53.390;-2.328;2023-12-28T06:04:47;12.38;;;1.92;;
24681;SDS011;12802;53.390;-2.328;2023-12-28T06:07:13;16.35;;;1.77;;
24681;SDS011;12802;53.390;-2.328;2023-12-28T06:09:40;16.77;;;2.60;;
24681;SDS011;12802;53.390;-2.328;2023-12-28T06:12:06;19.27;;;3.22;;
24681;SDS011;12802;53.390;-2.328;2023-12-28T06:14:32;18.90;;;2.00;;
24681;SDS011;12802;53.390;-2.328;2023-12-28T06:16:58;15.02;;;2.30;;
24681;SDS011;12802;53.390;-2.328;2023-12-28T06:19:24;17.25;;;2.30;;
24681;SDS011;12802;53.390;-2.328;2023-12-28T06:21:51;15.30;;;2.60;;
24681;SDS011;12802;53.390;-2.328;2023-12-28T06:24:19;16.17;;;2.40;;
24681;SDS011;12802;53.390;-2.328;2023-12-28T06:26:45;22.63;;;2.67;;
24681;SDS011;12802;53.390;-2.328;2023-12-28T06:29:11;19.00;;;2.85;;
24681;SDS011;12802;53.390;-2.328;2023-12-28T06:31:37;20.50;;;2.97;;
24681;SDS011;12802;53.390;-2.328;2023-12-28T06:34:03;17.38;;;2.70;;
24681;SDS011;12802;53.390;-2.328;2023-12-28T06:36:30;20.23;;;2.70;;
24681;SDS011;12802;53.390;-2.328;2023-12-28T06:38:56;14.32;;;2.67;;
24681;SDS011;12802;53.390;-2.328;2023-12-28T06:41:22;15.85;;;2.90;;
24681;SDS011;12802;53.390;-2.328;2023-12-28T06:43:48;20.70;;;3.28;;
24681;SDS011;12802;53.390;-2.328;2023-12-28T06:46:15;22.42;;;2.75;;
24681;SDS011;12802;53.390;-2.328;2023-12-28T06:48:41;25.30;;;3.58;;
24681;SDS011;12802;53.390;-2.328;2023-12-28T06:51:11;20.85;;;2.67;;
24681;SDS011;12802;53.390;-2.328;2023-12-28T06:53:41;23.15;;;3.35;;
24681;SDS011;12802;53.390;-2.328;2023-12-28T06:56:08;18.55;;;3.63;;
24681;SDS011;12802;53.390;-2.328;2023-12-28T06:58:35;22.08;;;3.03;;
24681;SDS011;12802;53.390;-2.328;2023-12-28T07:01:04;22.48;;;3.33;;
24681;SDS011;12802;53.390;-2.328;2023-12-28T07:03:31;20.00;;;3.40;;
24681;SDS011;12802;53.390;-2.328;2023-12-28T07:05:58;20.05;;;4.00;;
24681;SDS011;12802;53.390;-2.328;2023-12-28T07:08:24;20.48;;;2.97;;
24681;SDS011;12802;53.390;-2.328;2023-12-28T07:10:50;17.92;;;3.10;;
24681;SDS011;12802;53.390;-2.328;2023-12-28T07:13:17;17.55;;;3.30;;
24681;SDS011;12802;53.390;-2.328;2023-12-28T07:15:43;25.33;;;2.78;;
24681;SDS011;12802;53.390;-2.328;2023-12-28T07:18:09;21.88;;;3.03;;
24681;SDS011;12802;53.390;-2.328;2023-12-28T07:20:35;27.98;;;3.55;;
24681;SDS011;12802;53.390;-2.328;2023-12-28T07:23:01;16.10;;;2.80;;
24681;SDS011;12802;53.390;-2.328;2023-12-28T07:25:28;22.02;;;3.63;;
24681;SDS011;12802;53.390;-2.328;2023-12-28T07:27:54;20.45;;;3.67;;
24681;SDS011;12802;53.390;-2.328;2023-12-28T07:30:20;21.50;;;3.40;;
24681;SDS011;12802;53.390;-2.328;2023-12-28T07:32:46;23.20;;;3.80;;
24681;SDS011;12802;53.390;-2.328;2023-12-28T07:35:12;24.52;;;4.15;;
24681;SDS011;12802;53.390;-2.328;2023-12-28T07:37:39;19.50;;;3.08;;
24681;SDS011;12802;53.390;-2.328;2023-12-28T07:40:05;25.10;;;3.05;;
24681;SDS011;12802;53.390;-2.328;2023-12-28T07:42:31;19.33;;;3.92;;
24681;SDS011;12802;53.390;-2.328;2023-12-28T07:44:57;15.70;;;3.05;;
24681;SDS011;12802;53.390;-2.328;2023-12-28T07:47:23;19.27;;;2.83;;
24681;SDS011;12802;53.390;-2.328;2023-12-28T07:49:50;18.17;;;2.35;;
24681;SDS011;12802;53.390;-2.328;2023-12-28T07:52:16;16.55;;;2.72;;
24681;SDS011;12802;53.390;-2.328;2023-12-28T07:54:42;20.38;;;2.45;;
24681;SDS011;12802;53.390;-2.328;2023-12-28T07:57:08;11.38;;;2.53;;
24681;SDS011;12802;53.390;-2.328;2023-12-28T07:59:34;15.15;;;1.92;;
24681;SDS011;12802;53.390;-2.328;2023-12-28T08:02:01;16.42;;;2.20;;
24681;SDS011;12802;53.390;-2.328;2023-12-28T08:04:27;16.77;;;2.40;;
24681;SDS011;12802;53.390;-2.328;2023-12-28T08:06:53;19.15;;;2.72;;
24681;SDS011;12802;53.390;-2.328;2023-12-28T08:09:19;13.32;;;2.28;;
24681;SDS011;12802;53.390;-2.328;2023-12-28T08:11:45;16.60;;;2.72;;
24681;SDS011;12802;53.390;-2.328;2023-12-28T08:14:11;18.33;;;2.97;;
24681;SDS011;12802;53.390;-2.328;2023-12-28T08:16:37;16.70;;;2.65;;
24681;SDS011;12802;53.390;-2.328;2023-12-28T08:19:04;17.42;;;2.47;;
24681;SDS011;12802;53.390;-2.328;2023-12-28T08:21:30;17.13;;;2.97;;
24681;SDS011;12802;53.390;-2.328;2023-12-28T08:23:56;14.95;;;2.78;;
24681;SDS011;12802;53.390;-2.328;2023-12-28T08:26:22;13.73;;;2.45;;
24681;SDS011;12802;53.390;-2.328;2023-12-28T08:28:48;13.77;;;1.90;;
24681;SDS011;12802;53.390;-2.328;2023-12-28T08:31:14;13.18;;;2.33;;
24681;SDS011;12802;53.390;-2.328;2023-12-28T08:33:41;13.05;;;2.38;;
24681;SDS011;12802;53.390;-2.328;2023-12-28T08:36:07;13.45;;;1.48;;
24681;SDS011;12802;53.390;-2.328;2023-12-28T08:38:33;8.95;;;1.95;;
24681;SDS011;12802;53.390;-2.328;2023-12-28T08:40:59;15.70;;;1.65;;
24681;SDS011;12802;53.390;-2.328;2023-12-28T08:43:28;11.68;;;1.20;;
24681;SDS011;12802;53.390;-2.328;2023-12-28T08:45:54;10.10;;;1.92;;
24681;SDS011;12802;53.390;-2.328;2023-12-28T08:48:20;5.10;;;0.85;;
24681;SDS011;12802;53.390;-2.328;2023-12-28T08:50:49;4.28;;;1.17;;
24681;SDS011;12802;53.390;-2.328;2023-12-28T08:53:15;2.40;;;0.75;;
24681;SDS011;12802;53.390;-2.328;2023-12-28T08:55:41;7.47;;;0.80;;
24681;SDS011;12802;53.390;-2.328;2023-12-28T08:58:07;4.70;;;0.90;;
24681;SDS011;12802;53.390;-2.328;2023-12-28T09:00:33;5.55;;;1.10;;
24681;SDS011;12802;53.390;-2.328;2023-12-28T09:03:00;4.82;;;1.02;;
24681;SDS011;12802;53.390;-2.328;2023-12-28T09:05:26;8.95;;;1.55;;
24681;SDS011;12802;53.390;-2.328;2023-12-28T09:07:52;5.97;;;1.80;;
24681;SDS011;12802;53.390;-2.328;2023-12-28T09:10:18;5.63;;;1.45;;
24681;SDS011;12802;53.390;-2.328;2023-12-28T09:12:44;6.60;;;1.20;;
24681;SDS011;12802;53.390;-2.328;2023-12-28T09:15:10;8.65;;;1.40;;
24681;SDS011;12802;53.390;-2.328;2023-12-28T09:17:37;10.85;;;1.90;;
24681;SDS011;12802;53.390;-2.328;2023-12-28T09:20:03;3.90;;;1.05;;
24681;SDS011;12802;53.390;-2.328;2023-12-28T09:22:31;6.78;;;1.38;;
24681;SDS011;12802;53.390;-2.328;2023-12-28T09:24:57;3.70;;;1.15;;
24681;SDS011;12802;53.390;-2.328;2023-12-28T09:27:23;13.38;;;1.80;;
24681;SDS011;12802;53.390;-2.328;2023-12-28T09:29:50;5.47;;;1.38;;
24681;SDS011;12802;53.390;-2.328;2023-12-28T09:32:16;13.23;;;2.83;;
24681;SDS011;12802;53.390;-2.328;2023-12-28T09:34:42;22.55;;;2.25;;
24681;SDS011;12802;53.390;-2.328;2023-12-28T09:37:09;8.10;;;1.85;;
24681;SDS011;12802;53.390;-2.328;2023-12-28T09:39:35;4.80;;;1.48;;
24681;SDS011;12802;53.390;-2.328;2023-12-28T09:42:04;8.50;;;1.42;;
24681;SDS011;12802;53.390;-2.328;2023-12-28T09:44:31;6.68;;;1.42;;
24681;SDS011;12802;53.390;-2.328;2023-12-28T09:46:58;10.38;;;1.25;;
24681;SDS011;12802;53.390;-2.328;2023-12-28T09:49:25;9.38;;;2.28;;
24681;SDS011;12802;53.390;-2.328;2023-12-28T09:51:51;6.88;;;2.10;;
24681;SDS011;12802;53.390;-2.328;2023-12-28T09:54:17;10.35;;;2.50;;
24681;SDS011;12802;53.390;-2.328;2023-12-28T09:56:44;8.82;;;1.30;;
24681;SDS011;12802;53.390;-2.328;2023-12-28T09:59:11;13.30;;;1.85;;
24681;SDS011;12802;53.390;-2.328;2023-12-28T10:01:37;15.57;;;2.00;;
24681;SDS011;12802;53.390;-2.328;2023-12-28T10:04:04;8.45;;;1.45;;
24681;SDS011;12802;53.390;-2.328;2023-12-28T10:06:30;6.00;;;1.45;;
24681;SDS011;12802;53.390;-2.328;2023-12-28T10:08:56;9.15;;;2.08;;
24681;SDS011;12802;53.390;-2.328;2023-12-28T10:11:22;12.60;;;1.88;;
24681;SDS011;12802;53.390;-2.328;2023-12-28T10:13:50;11.43;;;1.80;;
24681;SDS011;12802;53.390;-2.328;2023-12-28T10:16:16;13.73;;;3.05;;
24681;SDS011;12802;53.390;-2.328;2023-12-28T10:18:43;7.43;;;1.52;;
24681;SDS011;12802;53.390;-2.328;2023-12-28T10:21:10;16.67;;;3.47;;
24681;SDS011;12802;53.390;-2.328;2023-12-28T10:23:37;10.25;;;2.53;;
24681;SDS011;12802;53.390;-2.328;2023-12-28T10:26:04;9.13;;;2.00;;
24681;SDS011;12802;53.390;-2.328;2023-12-28T10:28:31;7.53;;;2.72;;
24681;SDS011;12802;53.390;-2.328;2023-12-28T10:30:58;16.67;;;3.40;;
24681;SDS011;12802;53.390;-2.328;2023-12-28T10:33:24;15.75;;;2.00;;
24681;SDS011;12802;53.390;-2.328;2023-12-28T10:35:51;8.00;;;2.42;;
24681;SDS011;12802;53.390;-2.328;2023-12-28T10:38:17;6.40;;;1.70;;
24681;SDS011;12802;53.390;-2.328;2023-12-28T10:40:46;11.75;;;2.38;;
24681;SDS011;12802;53.390;-2.328;2023-12-28T10:43:16;13.13;;;3.60;;
24681;SDS011;12802;53.390;-2.328;2023-12-28T10:45:46;13.77;;;2.00;;
24681;SDS011;12802;53.390;-2.328;2023-12-28T10:50:42;14.20;;;2.50;;
24681;SDS011;12802;53.390;-2.328;2023-12-28T10:55:42;10.02;;;1.70;;
24681;SDS011;12802;53.390;-2.328;2023-12-28T10:58:20;10.65;;;2.00;;
24681;SDS011;12802;53.390;-2.328;2023-12-28T11:00:56;8.85;;;2.80;;
24681;SDS011;12802;53.390;-2.328;2023-12-28T11:03:27;15.00;;;2.88;;
24681;SDS011;12802;53.390;-2.328;2023-12-28T11:05:53;11.35;;;1.55;;
24681;SDS011;12802;53.390;-2.328;2023-12-28T11:08:21;25.13;;;3.53;;
24681;SDS011;12802;53.390;-2.328;2023-12-28T11:10:48;10.10;;;2.58;;
24681;SDS011;12802;53.390;-2.328;2023-12-28T11:13:15;13.30;;;2.42;;
24681;SDS011;12802;53.390;-2.328;2023-12-28T11:15:43;14.70;;;2.22;;
24681;SDS011;12802;53.390;-2.328;2023-12-28T11:18:10;18.55;;;3.33;;
24681;SDS011;12802;53.390;-2.328;2023-12-28T11:20:36;10.27;;;2.08;;
24681;SDS011;12802;53.390;-2.328;2023-12-28T11:23:03;10.50;;;1.67;;
24681;SDS011;12802;53.390;-2.328;2023-12-28T11:25:32;11.07;;;2.03;;
24681;SDS011;12802;53.390;-2.328;2023-12-28T11:27:59;10.65;;;2.38;;
24681;SDS011;12802;53.390;-2.328;2023-12-28T11:30:26;15.50;;;1.85;;
24681;SDS011;12802;53.390;-2.328;2023-12-28T11:32:56;15.60;;;1.98;;
24681;SDS011;12802;53.390;-2.328;2023-12-28T11:35:23;11.57;;;2.38;;
24681;SDS011;12802;53.390;-2.328;2023-12-28T11:37:51;16.98;;;3.15;;
24681;SDS011;12802;53.390;-2.328;2023-12-28T11:40:17;12.40;;;2.55;;
24681;SDS011;12802;53.390;-2.328;2023-12-28T11:42:50;2.97;;;1.10;;
24681;SDS011;12802;53.390;-2.328;2023-12-28T11:45:17;8.73;;;2.10;;
24681;SDS011;12802;53.390;-2.328;2023-12-28T11:47:44;4.82;;;1.33;;
24681;SDS011;12802;53.390;-2.328;2023-12-28T11:50:10;7.25;;;1.65;;
24681;SDS011;12802;53.390;-2.328;2023-12-28T11:52:37;12.75;;;1.70;;
24681;SDS011;12802;53.390;-2.328;2023-12-28T11:55:03;6.60;;;1.30;;
24681;SDS011;12802;53.390;-2.328;2023-12-28T11:57:30;13.05;;;1.80;;
24681;SDS011;12802;53.390;-2.328;2023-12-28T11:59:57;7.05;;;1.35;;
24681;SDS011;12802;53.390;-2.328;2023-12-28T12:02:24;12.98;;;2.22;;
24681;SDS011;12802;53.390;-2.328;2023-12-28T12:04:50;9.60;;;1.92;;
24681;SDS011;12802;53.390;-2.328;2023-12-28T12:07:17;13.85;;;2.80;;
24681;SDS011;12802;53.390;-2.328;2023-12-28T12:09:43;10.15;;;2.03;;
24681;SDS011;12802;53.390;-2.328;2023-12-28T12:12:09;12.70;;;1.85;;
24681;SDS011;12802;53.390;-2.328;2023-12-28T12:14:35;12.32;;;2.35;;
24681;SDS011;12802;53.390;-2.328;2023-12-28T12:17:02;9.48;;;1.42;;
24681;SDS011;12802;53.390;-2.328;2023-12-28T12:19:28;9.13;;;1.38;;
24681;SDS011;12802;53.390;-2.328;2023-12-28T12:21:55;11.05;;;1.65;;
24681;SDS011;12802;53.390;-2.328;2023-12-28T12:24:22;7.15;;;1.70;;
24681;SDS011;12802;53.390;-2.328;2023-12-28T12:26:54;19.63;;;1.55;;
24681;SDS011;12802;53.390;-2.328;2023-12-28T12:29:20;6.07;;;1.17;;
24681;SDS011;12802;53.390;-2.328;2023-12-28T12:31:47;6.28;;;1.27;;
24681;SDS011;12802;53.390;-2.328;2023-12-28T12:34:17;6.82;;;1.38;;
24681;SDS011;12802;53.390;-2.328;2023-12-28T12:36:43;10.32;;;1.02;;
24681;SDS011;12802;53.390;-2.328;2023-12-28T12:39:10;7.00;;;1.25;;
24681;SDS011;12802;53.390;-2.328;2023-12-28T12:41:36;8.05;;;1.33;;
24681;SDS011;12802;53.390;-2.328;2023-12-28T12:44:03;3.85;;;1.00;;
24681;SDS011;12802;53.390;-2.328;2023-12-28T12:46:30;3.92;;;0.95;;
24681;SDS011;12802;53.390;-2.328;2023-12-28T12:48:56;5.45;;;1.08;;
24681;SDS011;12802;53.390;-2.328;2023-12-28T12:51:23;3.95;;;1.17;;
24681;SDS011;12802;53.390;-2.328;2023-12-28T12:53:49;8.85;;;1.50;;
24681;SDS011;12802;53.390;-2.328;2023-12-28T12:56:15;3.95;;;0.60;;
24681;SDS011;12802;53.390;-2.328;2023-12-28T12:58:43;5.18;;;0.90;;
24681;SDS011;12802;53.390;-2.328;2023-12-28T13:01:10;6.60;;;1.15;;
24681;SDS011;12802;53.390;-2.328;2023-12-28T13:06:05;6.50;;;1.17;;
24681;SDS011;12802;53.390;-2.328;2023-12-28T13:08:32;7.00;;;0.93;;
24681;SDS011;12802;53.390;-2.328;2023-12-28T13:10:59;5.85;;;0.80;;
24681;SDS011;12802;53.390;-2.328;2023-12-28T13:13:25;5.60;;;1.13;;
24681;SDS011;12802;53.390;-2.328;2023-12-28T13:15:51;5.97;;;0.90;;
24681;SDS011;12802;53.390;-2.328;2023-12-28T13:18:17;5.22;;;0.75;;
24681;SDS011;12802;53.390;-2.328;2023-12-28T13:20:43;3.97;;;0.75;;
24681;SDS011;12802;53.390;-2.328;2023-12-28T13:23:11;2.72;;;0.38;;
24681;SDS011;12802;53.390;-2.328;2023-12-28T13:25:37;6.82;;;0.82;;
24681;SDS011;12802;53.390;-2.328;2023-12-28T13:28:03;1.17;;;0.28;;
24681;SDS011;12802;53.390;-2.328;2023-12-28T13:30:29;7.72;;;0.95;;
24681;SDS011;12802;53.390;-2.328;2023-12-28T13:32:56;2.80;;;0.77;;
24681;SDS011;12802;53.390;-2.328;2023-12-28T13:35:22;6.38;;;0.80;;
24681;SDS011;12802;53.390;-2.328;2023-12-28T13:37:48;1.75;;;0.55;;
24681;SDS011;12802;53.390;-2.328;2023-12-28T13:40:14;5.18;;;0.85;;
24681;SDS011;12802;53.390;-2.328;2023-12-28T13:42:41;11.75;;;1.98;;
24681;SDS011;12802;53.390;-2.328;2023-12-28T13:45:07;5.30;;;1.65;;
24681;SDS011;12802;53.390;-2.328;2023-12-28T13:47:33;6.55;;;1.40;;
24681;SDS011;12802;53.390;-2.328;2023-12-28T13:50:00;7.70;;;1.60;;
24681;SDS011;12802;53.390;-2.328;2023-12-28T13:52:26;12.05;;;1.70;;
24681;SDS011;12802;53.390;-2.328;2023-12-28T13:54:53;15.15;;;1.33;;
24681;SDS011;12802;53.390;-2.328;2023-12-28T13:57:19;4.65;;;0.85;;
24681;SDS011;12802;53.390;-2.328;2023-12-28T13:59:45;6.40;;;1.20;;
24681;SDS011;12802;53.390;-2.328;2023-12-28T14:02:11;7.53;;;2.05;;
24681;SDS011;12802;53.390;-2.328;2023-12-28T14:04:37;16.00;;;3.67;;
24681;SDS011;12802;53.390;-2.328;2023-12-28T14:07:04;11.50;;;1.65;;
24681;SDS011;12802;53.390;-2.328;2023-12-28T14:09:30;9.27;;;2.38;;
24681;SDS011;12802;53.390;-2.328;2023-12-28T14:11:58;18.15;;;1.90;;
24681;SDS011;12802;53.390;-2.328;2023-12-28T14:14:24;8.07;;;2.58;;
24681;SDS011;12802;53.390;-2.328;2023-12-28T14:16:50;8.02;;;1.48;;
24681;SDS011;12802;53.390;-2.328;2023-12-28T14:19:16;6.65;;;1.90;;
24681;SDS011;12802;53.390;-2.328;2023-12-28T14:21:43;9.38;;;1.80;;
24681;SDS011;12802;53.390;-2.328;2023-12-28T14:24:09;12.13;;;2.10;;
24681;SDS011;12802;53.390;-2.328;2023-12-28T14:26:38;12.45;;;3.08;;
24681;SDS011;12802;53.390;-2.328;2023-12-28T14:29:07;9.30;;;1.83;;
24681;SDS011;12802;53.390;-2.328;2023-12-28T14:31:33;14.63;;;1.85;;